createdAt,value
2022-11-29T00:50:05.222Z,15.90
2022-11-29T00:53:55.986Z,16.40
2022-11-29T00:56:58.946Z,12.55
2022-11-29T01:00:10.841Z,15.23
2022-11-29T01:03:56.231Z,17.30
2022-11-29T01:07:16.745Z,19.83
2022-11-29T01:10:30.043Z,16.65
2022-11-29T01:13:41.494Z,13.75
2022-11-29T01:16:48.732Z,16.02
2022-11-29T01:23:35.090Z,13.30
2022-11-29T01:26:38.114Z,12.90
2022-11-29T01:29:41.095Z,9.93
2022-11-29T01:32:43.809Z,14.57
2022-11-29T01:35:53.413Z,7.22
2022-11-29T01:38:56.168Z,13.18
2022-11-29T01:42:00.741Z,14.02
2022-11-29T01:45:19.124Z,16.37
2022-11-29T01:48:33.028Z,16.92
2022-11-29T01:51:37.936Z,17.52
2022-11-29T01:54:48.368Z,17.10
2022-11-29T01:57:51.236Z,16.95
2022-11-29T02:00:54.305Z,9.50
2022-11-29T02:03:58.293Z,10.30
2022-11-29T02:07:02.025Z,13.80
2022-11-29T02:10:06.867Z,7.62
2022-11-29T02:13:25.841Z,8.02
2022-11-29T02:16:36.639Z,12.95
2022-11-29T02:19:54.812Z,10.40
2022-11-29T02:23:36.250Z,7.62
2022-11-29T02:26:57.634Z,11.23
2022-11-29T02:30:09.528Z,5.80
2022-11-29T02:33:29.619Z,6.78
2022-11-29T02:36:44.461Z,16.65
2022-11-29T02:40:19.221Z,10.15
2022-11-29T02:43:42.633Z,8.48
2022-11-29T02:47:00.789Z,13.70
2022-11-29T02:50:22.970Z,6.62
2022-11-29T02:54:04.642Z,8.20
2022-11-29T02:57:31.099Z,8.63
2022-11-29T03:00:38.841Z,10.70
2022-11-29T03:04:04.833Z,5.20
2022-11-29T03:07:13.877Z,6.18
2022-11-29T03:10:38.948Z,8.75
2022-11-29T03:14:11.364Z,6.80
2022-11-29T03:17:40.543Z,8.38
2022-11-29T03:21:05.071Z,8.75
2022-11-29T03:24:37.159Z,8.38
2022-11-29T03:28:06.588Z,13.55
2022-11-29T03:31:09.432Z,7.55
2022-11-29T03:34:43.681Z,12.25
2022-11-29T03:38:21.255Z,13.93
2022-11-29T03:41:30.210Z,12.50
2022-11-29T03:44:51.896Z,8.20
2022-11-29T03:48:02.314Z,15.38
2022-11-29T03:51:16.349Z,6.18
2022-11-29T03:54:29.746Z,6.20
2022-11-29T03:58:25.070Z,7.85
2022-11-29T04:01:45.004Z,11.15
2022-11-29T04:05:22.232Z,12.37
2022-11-29T04:08:48.425Z,13.52
2022-11-29T04:12:07.090Z,10.70
2022-11-29T04:15:28.541Z,8.82
2022-11-29T04:18:52.175Z,13.10
2022-11-29T04:22:09.930Z,13.77
2022-11-29T04:25:39.959Z,15.20
2022-11-29T04:29:07.944Z,10.07
2022-11-29T04:32:25.756Z,12.45
2022-11-29T04:35:48.470Z,6.20
2022-11-29T04:39:07.265Z,7.43
2022-11-29T04:42:12.547Z,11.50
2022-11-29T04:45:24.629Z,13.60
2022-11-29T04:48:36.456Z,7.85
2022-11-29T04:52:17.301Z,14.77
2022-11-29T04:59:01.401Z,13.10
2022-11-29T05:02:29.486Z,11.35
2022-11-29T05:05:35.398Z,11.02
2022-11-29T05:08:47.956Z,8.50
2022-11-29T05:12:10.611Z,9.05
2022-11-29T05:15:31.432Z,10.15
2022-11-29T05:18:54.338Z,9.32
2022-11-29T05:21:56.915Z,8.75
2022-11-29T05:25:19.458Z,9.75
2022-11-29T05:28:32.021Z,9.95
2022-11-29T05:31:50.709Z,8.50
2022-11-29T05:35:36.076Z,12.43
2022-11-29T05:39:29.405Z,10.98
2022-11-29T05:42:50.725Z,12.00
2022-11-29T05:46:04.541Z,7.15
2022-11-29T05:49:22.524Z,5.40
2022-11-29T05:52:31.871Z,5.15
2022-11-29T05:55:45.054Z,10.80
2022-11-29T05:58:50.598Z,9.27
2022-11-29T06:02:31.976Z,7.43
2022-11-29T06:06:00.773Z,6.75
2022-11-29T06:09:40.792Z,7.82
2022-11-29T06:13:10.778Z,10.82
2022-11-29T06:16:32.517Z,7.50
2022-11-29T06:20:04.398Z,9.68
2022-11-29T06:23:07.375Z,5.15
2022-11-29T06:26:16.914Z,6.53
2022-11-29T06:29:34.777Z,4.43
2022-11-29T06:32:40.857Z,9.05
2022-11-29T06:36:09.791Z,5.37
2022-11-29T06:42:17.336Z,3.95
2022-11-29T06:45:21.973Z,8.70
2022-11-29T06:48:27.289Z,7.37
2022-11-29T06:51:49.489Z,6.68
2022-11-29T06:55:17.405Z,8.98
2022-11-29T06:59:11.476Z,5.95
2022-11-29T07:02:32.866Z,7.30
2022-11-29T07:05:36.465Z,6.65
2022-11-29T07:08:43.191Z,6.32
2022-11-29T07:12:12.810Z,8.23
2022-11-29T07:15:21.201Z,4.07
2022-11-29T07:19:04.047Z,5.32
2022-11-29T07:22:36.552Z,9.45
2022-11-29T07:26:05.965Z,8.20
2022-11-29T07:29:28.351Z,4.35
2022-11-29T07:33:00.591Z,8.18
2022-11-29T07:36:18.628Z,5.93
2022-11-29T07:39:48.362Z,5.47
2022-11-29T07:43:13.128Z,8.25
2022-11-29T07:46:21.069Z,10.88
2022-11-29T07:49:24.338Z,8.07
2022-11-29T07:52:28.626Z,13.25
2022-11-29T07:55:32.281Z,11.00
2022-11-29T07:58:36.321Z,9.43
2022-11-29T08:01:47.530Z,10.77
2022-11-29T08:04:50.796Z,12.00
2022-11-29T08:08:01.893Z,9.30
2022-11-29T08:11:16.571Z,6.82
2022-11-29T08:14:32.298Z,10.55
2022-11-29T08:17:37.297Z,11.20
2022-11-29T08:20:41.873Z,4.37
2022-11-29T08:23:48.340Z,12.20
2022-11-29T08:26:51.870Z,13.25
2022-11-29T08:30:07.017Z,10.70
2022-11-29T08:33:10.087Z,10.77
2022-11-29T08:36:21.613Z,7.72
2022-11-29T08:39:39.438Z,8.68
2022-11-29T08:43:23.394Z,11.90
2022-11-29T08:46:49.193Z,8.73
2022-11-29T08:50:02.488Z,8.30
2022-11-29T08:53:25.221Z,12.27
2022-11-29T08:57:16.515Z,13.50
2022-11-29T08:59:55.375Z,10.73
2022-11-29T09:03:18.700Z,4.12
2022-11-29T09:06:21.357Z,8.32
2022-11-29T09:09:24.265Z,7.78
2022-11-29T09:12:26.943Z,13.82
2022-11-29T09:15:30.091Z,11.60
2022-11-29T09:18:32.782Z,14.43
2022-11-29T09:21:36.839Z,6.60
2022-11-29T09:24:39.722Z,12.70
2022-11-29T09:27:42.865Z,10.13
2022-11-29T09:30:45.500Z,12.37
2022-11-29T09:33:48.690Z,15.15
2022-11-29T09:36:51.453Z,13.00
2022-11-29T09:39:54.627Z,14.02
2022-11-29T09:43:15.002Z,15.55
2022-11-29T09:46:23.681Z,10.60
2022-11-29T09:50:03.978Z,7.43
2022-11-29T09:53:16.286Z,15.80
2022-11-29T09:56:28.309Z,13.10
2022-11-29T09:59:45.675Z,15.38
2022-11-29T10:02:50.560Z,12.10
2022-11-29T10:06:02.452Z,16.52
2022-11-29T10:09:13.493Z,12.93
2022-11-29T10:12:40.721Z,9.70
2022-11-29T10:15:50.851Z,10.63
2022-11-29T10:19:04.804Z,7.80
2022-11-29T10:22:40.856Z,14.07
2022-11-29T10:25:53.184Z,11.27
2022-11-29T10:28:57.979Z,7.53
2022-11-29T10:32:10.119Z,12.20
2022-11-29T10:35:15.493Z,8.50
2022-11-29T10:38:33.746Z,10.15
2022-11-29T10:41:36.516Z,7.25
2022-11-29T10:44:39.468Z,7.00
2022-11-29T10:47:43.633Z,6.95
2022-11-29T10:50:49.174Z,9.75
2022-11-29T10:53:54.710Z,9.13
2022-11-29T10:57:00.048Z,10.82
2022-11-29T11:00:04.529Z,6.07
2022-11-29T11:03:25.561Z,9.15
2022-11-29T11:07:01.473Z,10.38
2022-11-29T11:10:37.170Z,7.37
2022-11-29T11:13:41.190Z,9.32
2022-11-29T11:16:44.352Z,19.17
2022-11-29T11:20:05.831Z,12.00
2022-11-29T11:23:42.992Z,11.82
2022-11-29T11:26:46.044Z,8.05
2022-11-29T11:29:52.973Z,10.63
2022-11-29T11:33:24.183Z,10.85
2022-11-29T11:37:00.352Z,13.77
2022-11-29T11:40:40.782Z,10.57
2022-11-29T11:44:00.477Z,12.40
2022-11-29T11:47:06.144Z,11.32
2022-11-29T11:50:43.617Z,14.40
2022-11-29T11:53:51.299Z,8.73
2022-11-29T11:57:18.954Z,16.50
2022-11-29T12:01:04.988Z,10.25
2022-11-29T12:04:37.381Z,14.15
2022-11-29T12:08:08.229Z,5.37
2022-11-29T12:11:16.315Z,14.27
2022-11-29T12:14:46.782Z,13.93
2022-11-29T12:17:56.066Z,10.65
2022-11-29T12:21:32.445Z,15.57
2022-11-29T12:24:47.916Z,15.27
2022-11-29T12:27:52.056Z,13.02
2022-11-29T12:31:26.568Z,10.70
2022-11-29T12:34:58.608Z,11.77
2022-11-29T12:38:42.153Z,14.40
2022-11-29T12:42:23.733Z,17.20
2022-11-29T12:46:06.499Z,15.65
2022-11-29T12:49:54.336Z,14.07
2022-11-29T12:53:21.212Z,13.73
2022-11-29T12:56:31.618Z,17.30
2022-11-29T13:00:03.853Z,7.70
2022-11-29T13:03:42.513Z,13.30
2022-11-29T13:07:20.948Z,13.62
2022-11-29T13:10:56.254Z,10.77
2022-11-29T13:14:43.355Z,10.63
2022-11-29T13:17:46.873Z,14.85
2022-11-29T13:21:13.475Z,10.18
2022-11-29T13:24:22.327Z,12.82
2022-11-29T13:27:31.391Z,10.93
2022-11-29T13:30:35.934Z,7.50
2022-11-29T13:34:24.005Z,10.10
2022-11-29T13:38:03.491Z,10.15
2022-11-29T13:41:45.037Z,16.50
2022-11-29T13:44:58.530Z,11.55
2022-11-29T13:48:37.505Z,16.90
2022-11-29T13:52:06.497Z,12.63
2022-11-29T13:55:14.440Z,12.60
2022-11-29T13:58:39.691Z,14.95
2022-11-29T14:01:51.176Z,13.30
2022-11-29T14:04:55.667Z,17.92
2022-11-29T14:09:02.515Z,17.80
2022-11-29T14:12:50.002Z,14.00
2022-11-29T14:16:31.916Z,15.18
2022-11-29T14:20:23.749Z,14.45
2022-11-29T14:24:02.100Z,13.40
2022-11-29T14:27:25.905Z,18.62
2022-11-29T14:31:10.911Z,15.85
2022-11-29T14:34:43.990Z,16.52
2022-11-29T14:38:16.252Z,14.67
2022-11-29T14:42:04.433Z,15.07
2022-11-29T14:45:33.020Z,10.35
2022-11-29T14:48:38.378Z,14.60
2022-11-29T14:52:13.190Z,14.30
2022-11-29T14:55:37.997Z,16.05
2022-11-29T14:58:40.925Z,14.27
2022-11-29T15:02:25.584Z,14.27
2022-11-29T15:05:55.322Z,15.70
2022-11-29T15:12:47.520Z,16.52
2022-11-29T15:16:41.775Z,15.77
2022-11-29T15:20:10.934Z,13.48
2022-11-29T15:23:42.718Z,21.23
2022-11-29T15:27:05.496Z,18.73
2022-11-29T15:34:23.085Z,20.25
2022-11-29T15:38:06.227Z,17.90
2022-11-29T15:41:35.651Z,19.42
2022-11-29T15:45:00.015Z,18.73
2022-11-29T15:52:35.055Z,17.58
2022-11-29T15:56:00.891Z,18.52
2022-11-29T15:59:42.550Z,14.30
2022-11-29T16:03:15.768Z,15.98
2022-11-29T16:06:43.183Z,15.35
2022-11-29T16:10:35.303Z,16.87
2022-11-29T16:14:22.496Z,16.45
2022-11-29T16:17:29.056Z,17.70
2022-11-29T16:21:00.931Z,16.37
2022-11-29T16:24:23.901Z,20.12
2022-11-29T16:27:47.802Z,31.85
2022-11-29T16:31:18.000Z,22.30
2022-11-29T16:39:05.963Z,23.08
2022-11-29T16:43:18.312Z,17.35
2022-11-29T16:46:46.660Z,15.80
2022-11-29T16:51:13.451Z,23.92
2022-11-29T16:54:56.727Z,14.30
2022-11-29T16:58:19.851Z,15.35
2022-11-29T17:01:42.752Z,16.27
2022-11-29T17:04:47.845Z,17.80
2022-11-29T17:08:37.063Z,19.65
2022-11-29T17:12:21.727Z,17.37
2022-11-29T17:15:54.309Z,19.50
2022-11-29T17:23:14.751Z,16.62
2022-11-29T17:26:37.699Z,15.98
2022-11-29T17:30:00.927Z,12.65
2022-11-29T17:33:42.406Z,12.65
2022-11-29T17:37:05.117Z,15.75
2022-11-29T17:40:36.687Z,13.65
2022-11-29T17:43:40.845Z,10.52
2022-11-29T17:47:23.987Z,9.93
2022-11-29T17:50:46.734Z,11.82
2022-11-29T17:54:33.191Z,8.82
2022-11-29T17:58:25.139Z,14.43
2022-11-29T18:02:17.294Z,10.30
2022-11-29T18:05:42.460Z,9.00
2022-11-29T18:09:13.690Z,14.52
2022-11-29T18:12:37.344Z,9.32
2022-11-29T18:16:10.795Z,14.07
2022-11-29T18:19:44.897Z,17.75
2022-11-29T18:23:13.321Z,9.27
2022-11-29T18:26:47.558Z,14.55
2022-11-29T18:30:30.920Z,13.75
2022-11-29T18:33:56.274Z,13.35
2022-11-29T18:37:55.819Z,18.30
2022-11-29T18:41:11.120Z,17.60
2022-11-29T18:45:08.877Z,14.82
2022-11-29T18:49:10.402Z,11.00
2022-11-29T18:53:13.610Z,15.25
2022-11-29T18:56:22.336Z,14.60
2022-11-29T19:06:38.926Z,12.37
2022-11-29T19:09:42.533Z,13.35
2022-11-29T19:12:46.290Z,18.52
2022-11-29T19:15:53.621Z,16.50
2022-11-29T19:18:58.162Z,19.10
2022-11-29T19:22:01.073Z,17.95
2022-11-29T19:25:04.428Z,19.17
2022-11-29T19:28:14.415Z,21.33
2022-11-29T19:31:20.533Z,19.85
2022-11-29T19:34:24.572Z,18.08
2022-11-29T19:37:27.706Z,19.35
2022-11-29T19:40:30.710Z,21.00
2022-11-29T19:43:50.330Z,23.38
2022-11-29T19:46:53.532Z,20.33
2022-11-29T19:50:02.066Z,20.48
2022-11-29T19:53:05.780Z,25.50
2022-11-29T19:56:11.786Z,24.87
2022-11-29T19:59:34.886Z,23.35
2022-11-29T20:09:56.635Z,20.77
2022-11-29T20:13:30.371Z,20.08
2022-11-29T20:16:38.390Z,20.85
2022-11-29T20:23:10.613Z,20.52
2022-11-29T20:26:18.856Z,21.00
2022-11-29T20:29:22.017Z,22.45
2022-11-29T20:32:25.012Z,20.55
2022-11-29T20:35:28.072Z,20.62
2022-11-29T20:38:41.778Z,22.33
2022-11-29T20:41:44.376Z,18.33
2022-11-29T20:44:53.913Z,22.37
2022-11-29T20:48:02.623Z,22.77
2022-11-29T20:51:06.649Z,21.33
2022-11-29T20:54:12.000Z,21.35
2022-11-29T20:57:15.064Z,24.00
2022-11-29T21:00:18.397Z,20.90
2022-11-29T21:03:22.329Z,22.90
2022-11-29T21:06:25.026Z,21.87
2022-11-29T21:09:28.688Z,22.70
2022-11-29T21:12:32.105Z,21.52
2022-11-29T21:15:35.540Z,20.88
2022-11-29T21:18:38.673Z,21.23
2022-11-29T21:22:09.605Z,20.58
2022-11-29T21:25:21.417Z,23.08
2022-11-29T21:28:30.205Z,23.38
2022-11-29T21:31:33.261Z,23.52
2022-11-29T21:34:36.235Z,24.33
2022-11-29T21:37:39.093Z,22.13
2022-11-29T21:40:42.038Z,23.20
2022-11-29T21:44:05.398Z,21.92
2022-11-29T21:47:07.648Z,24.50
2022-11-29T21:50:11.970Z,22.73
2022-11-29T21:53:14.876Z,22.95
2022-11-29T21:56:17.730Z,22.45
2022-11-29T21:59:21.161Z,22.52
2022-11-29T22:02:23.948Z,22.83
2022-11-29T22:05:27.012Z,22.37
2022-11-29T22:08:29.676Z,22.23
2022-11-29T22:11:34.348Z,21.50
2022-11-29T22:14:37.211Z,21.92
2022-11-29T22:17:41.246Z,20.48
2022-11-29T22:20:44.088Z,21.58
2022-11-29T22:23:47.185Z,21.98
2022-11-29T22:26:51.359Z,22.25
2022-11-29T22:29:54.615Z,24.98
2022-11-29T22:32:57.327Z,22.30
2022-11-29T22:36:11.609Z,22.23
2022-11-29T22:39:14.639Z,22.45
2022-11-29T22:42:17.600Z,22.50
2022-11-29T22:45:20.369Z,22.75
2022-11-29T22:48:23.623Z,23.12
2022-11-29T22:51:31.894Z,21.33
2022-11-29T22:54:34.830Z,23.02
2022-11-29T22:57:37.392Z,23.98
2022-11-29T23:00:44.050Z,24.70
2022-11-29T23:03:51.776Z,23.35
2022-11-29T23:06:54.809Z,23.85
2022-11-29T23:09:57.631Z,25.42
2022-11-29T23:13:02.917Z,24.37
2022-11-29T23:16:07.543Z,22.05
2022-11-29T23:19:10.570Z,21.52
2022-11-29T23:22:13.393Z,21.12
2022-11-29T23:25:16.454Z,20.60
2022-11-29T23:28:19.492Z,21.48
2022-11-29T23:31:23.915Z,20.77
2022-11-29T23:34:26.677Z,20.62
2022-11-29T23:37:29.571Z,21.35
2022-11-29T23:40:35.236Z,20.35
2022-11-29T23:43:40.548Z,19.30
2022-11-29T23:46:43.211Z,19.87
2022-11-29T23:49:46.383Z,19.17
2022-11-29T23:52:54.017Z,18.62
2022-11-29T23:55:59.293Z,17.52
2022-11-29T23:59:02.485Z,18.62
